createdAt,value
2022-08-22T00:02:23.545Z,2.05
2022-08-22T00:02:44.178Z,1.90
2022-08-22T00:02:46.875Z,3.10
2022-08-22T00:02:53.246Z,1.52
2022-08-22T00:04:59.280Z,1.88
2022-08-22T00:07:44.898Z,1.50
2022-08-22T00:10:24.923Z,1.65
2022-08-22T00:13:02.247Z,1.70
2022-08-22T00:15:42.979Z,1.63
2022-08-22T00:18:10.929Z,1.92
2022-08-22T00:20:50.247Z,1.95
2022-08-22T00:23:21.898Z,1.90
2022-08-22T00:25:51.931Z,1.92
2022-08-22T00:28:39.850Z,1.85
2022-08-22T00:31:28.272Z,2.45
2022-08-22T00:34:14.092Z,2.13
2022-08-22T00:36:41.338Z,1.92
2022-08-22T00:39:17.253Z,2.50
2022-08-22T00:42:03.072Z,1.85
2022-08-22T00:44:30.247Z,2.00
2022-08-22T00:47:34.095Z,2.10
2022-08-22T00:50:24.659Z,2.20
2022-08-22T00:53:04.043Z,2.00
2022-08-22T00:55:45.931Z,1.98
2022-08-22T00:58:28.178Z,2.15
2022-08-22T01:00:56.830Z,2.13
2022-08-22T01:06:06.357Z,2.33
2022-08-22T01:08:39.441Z,2.17
2022-08-22T01:11:18.462Z,2.08
2022-08-22T01:14:00.114Z,1.83
2022-08-22T01:16:42.518Z,2.00
2022-08-22T01:19:12.479Z,2.10
2022-08-22T01:22:10.381Z,2.20
2022-08-22T01:25:14.798Z,2.10
2022-08-22T01:30:18.045Z,2.20
2022-08-22T01:32:45.435Z,2.28
2022-08-22T01:35:12.513Z,2.45
2022-08-22T01:37:43.867Z,2.08
2022-08-22T01:40:26.352Z,2.28
2022-08-22T01:43:00.284Z,2.47
2022-08-22T01:45:36.342Z,1.98
2022-08-22T01:48:06.370Z,2.25
2022-08-22T01:50:38.180Z,2.08
2022-08-22T01:53:12.146Z,2.30
2022-08-22T01:55:48.898Z,2.50
2022-08-22T01:58:21.948Z,2.00
2022-08-22T02:00:55.975Z,2.53
2022-08-22T02:03:26.108Z,2.38
2022-08-22T02:05:59.700Z,2.17
2022-08-22T02:08:39.170Z,2.75
2022-08-22T02:11:10.779Z,2.45
2022-08-22T02:13:50.002Z,2.10
2022-08-22T02:16:36.250Z,1.73
2022-08-22T02:19:06.962Z,2.75
2022-08-22T02:21:48.383Z,2.58
2022-08-22T02:26:43.291Z,2.10
2022-08-22T02:29:19.760Z,1.85
2022-08-22T02:31:49.298Z,2.78
2022-08-22T02:34:35.219Z,2.70
2022-08-22T02:37:09.214Z,2.28
2022-08-22T02:39:45.014Z,2.08
2022-08-22T02:42:34.006Z,2.50
2022-08-22T02:45:03.986Z,2.20
2022-08-22T02:47:33.817Z,2.83
2022-08-22T02:50:03.795Z,2.13
2022-08-22T02:52:36.199Z,2.03
2022-08-22T02:55:38.653Z,2.20
2022-08-22T02:58:21.183Z,2.03
2022-08-22T03:00:50.448Z,2.30
2022-08-22T03:03:25.820Z,2.28
2022-08-22T03:06:00.845Z,2.40
2022-08-22T03:08:31.620Z,2.20
2022-08-22T03:11:17.288Z,1.98
2022-08-22T03:13:53.300Z,2.15
2022-08-22T03:16:36.795Z,2.53
2022-08-22T03:19:06.931Z,2.45
2022-08-22T03:21:37.581Z,1.88
2022-08-22T03:24:09.166Z,1.90
2022-08-22T03:26:50.193Z,1.83
2022-08-22T03:32:03.275Z,1.90
2022-08-22T03:34:30.383Z,1.70
2022-08-22T03:37:08.462Z,2.05
2022-08-22T03:39:48.483Z,2.72
2022-08-22T03:42:15.644Z,2.10
2022-08-22T03:45:01.687Z,2.03
2022-08-22T03:47:53.217Z,2.38
2022-08-22T03:50:20.314Z,2.50
2022-08-22T03:53:18.801Z,4.32
2022-08-22T03:55:50.290Z,2.85
2022-08-22T03:58:27.564Z,2.30
2022-08-22T04:01:07.650Z,2.22
2022-08-22T04:03:47.881Z,1.92
2022-08-22T04:06:36.090Z,2.30
2022-08-22T04:09:20.651Z,2.22
2022-08-22T04:12:07.623Z,1.90
2022-08-22T04:14:39.723Z,2.00
2022-08-22T04:17:12.963Z,2.35
2022-08-22T04:19:52.240Z,2.65
2022-08-22T04:22:26.729Z,2.10
2022-08-22T04:24:53.847Z,2.25
2022-08-22T04:27:33.951Z,2.38
2022-08-22T04:30:07.847Z,2.17
2022-08-22T04:32:41.325Z,2.30
2022-08-22T04:35:08.682Z,2.10
2022-08-22T04:37:36.056Z,2.33
2022-08-22T04:40:06.001Z,1.92
2022-08-22T04:42:36.581Z,2.33
2022-08-22T04:45:18.689Z,2.35
2022-08-22T04:47:54.282Z,2.40
2022-08-22T04:50:24.677Z,2.00
2022-08-22T04:52:51.790Z,2.03
2022-08-22T04:55:43.993Z,2.28
2022-08-22T04:58:16.320Z,2.20
2022-08-22T05:00:58.549Z,2.47
2022-08-22T05:03:28.844Z,2.38
2022-08-22T05:05:58.008Z,1.95
2022-08-22T05:08:27.825Z,2.40
2022-08-22T05:10:55.330Z,2.17
2022-08-22T05:13:24.918Z,2.10
2022-08-22T05:15:55.507Z,2.40
2022-08-22T05:18:29.571Z,2.10
2022-08-22T05:20:59.576Z,2.03
2022-08-22T05:23:31.567Z,2.30
2022-08-22T05:26:00.654Z,2.28
2022-08-22T05:28:27.748Z,2.30
2022-08-22T05:30:55.303Z,2.08
2022-08-22T05:33:31.585Z,2.00
2022-08-22T05:36:00.720Z,2.60
2022-08-22T05:38:36.722Z,1.70
2022-08-22T05:41:10.146Z,2.25
2022-08-22T05:43:43.323Z,1.88
2022-08-22T05:46:17.479Z,1.77
2022-08-22T05:48:47.001Z,1.80
2022-08-22T05:51:21.559Z,1.70
2022-08-22T05:53:51.581Z,1.95
2022-08-22T05:56:48.155Z,1.63
2022-08-22T05:59:27.783Z,1.73
2022-08-22T06:02:06.785Z,2.10
2022-08-22T06:04:54.801Z,1.65
2022-08-22T06:07:35.781Z,1.90
2022-08-22T06:10:35.994Z,1.70
2022-08-22T06:13:05.677Z,1.88
2022-08-22T06:15:44.707Z,1.95
2022-08-22T06:18:16.851Z,1.88
2022-08-22T06:20:49.280Z,2.00
2022-08-22T06:23:36.630Z,1.75
2022-08-22T06:26:05.422Z,2.90
2022-08-22T06:28:37.929Z,1.85
2022-08-22T06:31:23.887Z,1.80
2022-08-22T06:34:11.391Z,1.92
2022-08-22T06:36:40.375Z,2.53
2022-08-22T06:39:23.062Z,1.98
2022-08-22T06:41:53.731Z,2.13
2022-08-22T06:44:22.548Z,1.83
2022-08-22T06:49:17.085Z,1.80
2022-08-22T06:51:45.438Z,1.80
2022-08-22T06:54:18.061Z,2.58
2022-08-22T06:56:46.527Z,2.00
2022-08-22T06:59:15.590Z,2.63
2022-08-22T07:01:48.969Z,2.42
2022-08-22T07:04:16.477Z,2.10
2022-08-22T07:06:45.063Z,2.63
2022-08-22T07:09:20.654Z,2.30
2022-08-22T07:11:48.443Z,2.40
2022-08-22T07:14:17.322Z,2.35
2022-08-22T07:16:49.828Z,2.17
2022-08-22T07:19:28.905Z,2.10
2022-08-22T07:21:57.358Z,2.28
2022-08-22T07:24:32.497Z,2.50
2022-08-22T07:27:08.939Z,2.45
2022-08-22T07:29:36.071Z,4.75
2022-08-22T07:32:09.699Z,4.22
2022-08-22T07:34:38.079Z,4.10
2022-08-22T07:37:07.755Z,4.03
2022-08-22T07:39:56.231Z,4.15
2022-08-22T07:42:30.382Z,4.50
2022-08-22T07:45:20.592Z,3.20
2022-08-22T07:47:57.201Z,2.83
2022-08-22T07:50:27.630Z,3.22
2022-08-22T07:52:58.992Z,4.80
2022-08-22T07:55:27.073Z,2.72
2022-08-22T07:57:55.966Z,3.90
2022-08-22T08:00:24.814Z,4.03
2022-08-22T08:02:56.622Z,4.15
2022-08-22T08:05:25.407Z,2.88
2022-08-22T08:12:57.902Z,3.85
2022-08-22T08:15:32.061Z,3.22
2022-08-22T08:18:01.922Z,3.78
2022-08-22T08:20:30.136Z,3.85
2022-08-22T08:22:58.366Z,3.78
2022-08-22T08:25:27.404Z,3.58
2022-08-22T08:28:33.621Z,3.70
2022-08-22T08:31:07.712Z,3.10
2022-08-22T08:33:36.047Z,3.50
2022-08-22T08:36:25.493Z,3.50
2022-08-22T08:39:10.250Z,3.25
2022-08-22T08:41:45.098Z,3.80
2022-08-22T08:46:55.166Z,2.35
2022-08-22T08:49:35.002Z,2.95
2022-08-22T08:52:08.018Z,2.97
2022-08-22T08:54:55.715Z,2.33
2022-08-22T08:57:41.340Z,3.20
2022-08-22T09:00:17.116Z,3.00
2022-08-22T09:02:47.402Z,2.90
2022-08-22T09:05:27.052Z,2.50
2022-08-22T09:07:57.443Z,2.97
2022-08-22T09:10:27.363Z,3.35
2022-08-22T09:13:11.525Z,2.55
2022-08-22T09:16:04.288Z,2.65
2022-08-22T09:18:33.472Z,2.60
2022-08-22T09:21:27.584Z,2.65
2022-08-22T09:27:02.073Z,2.78
2022-08-22T09:32:00.323Z,2.88
2022-08-22T09:34:37.972Z,2.40
2022-08-22T09:37:14.113Z,2.70
2022-08-22T09:39:51.481Z,2.45
2022-08-22T09:40:15.556Z,2.58
2022-08-22T09:42:21.746Z,1.98
2022-08-22T09:44:59.574Z,2.95
2022-08-22T09:47:26.733Z,2.95
2022-08-22T09:49:58.470Z,3.10
2022-08-22T09:52:36.906Z,2.80
2022-08-22T09:55:08.113Z,2.20
2022-08-22T09:57:49.921Z,2.70
2022-08-22T10:00:40.572Z,3.13
2022-08-22T10:03:16.938Z,2.55
2022-08-22T10:05:48.776Z,2.63
2022-08-22T10:08:32.156Z,2.55
2022-08-22T10:10:59.299Z,2.33
2022-08-22T10:13:26.423Z,2.33
2022-08-22T10:16:13.066Z,2.05
2022-08-22T10:18:53.829Z,2.30
2022-08-22T10:21:38.070Z,1.80
2022-08-22T10:24:25.121Z,3.03
2022-08-22T10:26:58.121Z,1.90
2022-08-22T10:29:37.267Z,1.77
2022-08-22T10:32:13.944Z,2.13
2022-08-22T10:34:44.602Z,2.47
2022-08-22T10:37:31.430Z,2.20
2022-08-22T10:40:12.132Z,2.47
2022-08-22T10:42:45.926Z,2.17
2022-08-22T10:45:23.589Z,2.60
2022-08-22T10:47:51.441Z,3.05
2022-08-22T10:50:21.221Z,2.00
2022-08-22T10:53:28.261Z,2.30
2022-08-22T10:56:12.799Z,1.98
2022-08-22T10:58:49.411Z,1.85
2022-08-22T11:01:38.295Z,1.90
2022-08-22T11:04:35.722Z,2.03
2022-08-22T11:07:21.859Z,1.90
2022-08-22T11:09:54.694Z,1.80
2022-08-22T11:12:32.811Z,1.90
2022-08-22T11:15:03.064Z,2.10
2022-08-22T11:17:54.168Z,2.10
2022-08-22T11:20:22.022Z,1.80
2022-08-22T11:23:12.315Z,2.35
2022-08-22T11:25:53.720Z,2.03
2022-08-22T11:28:33.573Z,2.08
2022-08-22T11:31:10.078Z,2.25
2022-08-22T11:33:50.443Z,2.65
2022-08-22T11:36:17.648Z,2.08
2022-08-22T11:39:09.846Z,1.90
2022-08-22T11:42:07.551Z,1.70
2022-08-22T11:44:50.504Z,2.33
2022-08-22T11:47:20.431Z,2.10
2022-08-22T11:49:58.608Z,1.95
2022-08-22T11:52:37.988Z,1.98
2022-08-22T11:55:23.761Z,2.10
2022-08-22T11:57:56.553Z,2.17
2022-08-22T12:00:23.706Z,2.30
2022-08-22T12:03:23.311Z,2.58
2022-08-22T12:06:16.470Z,2.50
2022-08-22T12:09:09.436Z,2.40
2022-08-22T12:11:44.483Z,2.38
2022-08-22T12:14:27.034Z,2.25
2022-08-22T12:17:01.210Z,2.42
2022-08-22T12:19:33.822Z,2.65
2022-08-22T12:22:00.917Z,2.55
2022-08-22T12:24:37.490Z,2.30
2022-08-22T12:27:06.603Z,2.42
2022-08-22T12:29:44.954Z,2.28
2022-08-22T12:32:15.211Z,2.50
2022-08-22T12:34:55.569Z,3.38
2022-08-22T12:37:25.680Z,2.15
2022-08-22T12:39:52.930Z,2.70
2022-08-22T12:42:29.295Z,3.35
2022-08-22T12:44:56.619Z,2.95
2022-08-22T12:47:42.626Z,3.20
2022-08-22T12:50:17.606Z,2.60
2022-08-22T12:52:56.741Z,2.95
2022-08-22T12:55:30.194Z,2.72
2022-08-22T12:58:23.499Z,3.10
2022-08-22T13:00:52.534Z,3.22
2022-08-22T13:03:29.680Z,2.67
2022-08-22T13:06:00.595Z,3.10
2022-08-22T13:08:29.062Z,3.15
2022-08-22T13:11:02.059Z,3.05
2022-08-22T13:13:37.115Z,2.45
2022-08-22T13:16:09.397Z,2.42
2022-08-22T13:19:07.549Z,2.97
2022-08-22T13:21:38.702Z,2.70
2022-08-22T13:24:10.543Z,2.50
2022-08-22T13:26:42.917Z,2.90
2022-08-22T13:29:26.820Z,2.92
2022-08-22T13:31:58.989Z,2.60
2022-08-22T13:34:40.555Z,2.38
2022-08-22T13:37:15.671Z,2.45
2022-08-22T13:39:44.554Z,2.80
2022-08-22T13:42:30.858Z,2.38
2022-08-22T13:45:00.149Z,2.70
2022-08-22T13:47:31.618Z,2.28
2022-08-22T13:50:07.697Z,2.70
2022-08-22T13:52:57.862Z,2.45
2022-08-22T13:55:29.710Z,2.75
2022-08-22T13:58:12.934Z,1.88
2022-08-22T14:00:59.507Z,2.60
2022-08-22T14:03:32.175Z,2.70
2022-08-22T14:06:06.230Z,2.67
2022-08-22T14:08:47.807Z,2.47
2022-08-22T14:11:28.900Z,2.13
2022-08-22T14:13:59.424Z,2.40
2022-08-22T14:16:27.786Z,2.28
2022-08-22T14:19:06.071Z,2.47
2022-08-22T14:21:40.082Z,3.00
2022-08-22T14:24:25.647Z,2.28
2022-08-22T14:27:06.568Z,2.30
2022-08-22T14:29:54.209Z,2.45
2022-08-22T14:32:26.720Z,2.30
2022-08-22T14:34:59.641Z,2.30
2022-08-22T14:37:32.236Z,2.20
2022-08-22T14:40:04.470Z,2.65
2022-08-22T14:42:44.377Z,2.78
2022-08-22T14:45:11.857Z,2.10
2022-08-22T14:48:29.562Z,2.72
2022-08-22T14:50:40.654Z,2.15
2022-08-22T14:53:25.148Z,2.20
2022-08-22T14:56:04.932Z,2.30
2022-08-22T14:58:34.759Z,3.20
2022-08-22T15:01:10.921Z,2.20
2022-08-22T15:03:40.022Z,2.25
2022-08-22T15:06:11.322Z,2.10
2022-08-22T15:08:42.194Z,1.92
2022-08-22T15:11:10.235Z,1.70
2022-08-22T15:13:39.616Z,2.40
2022-08-22T15:16:14.577Z,2.10
2022-08-22T15:18:51.524Z,1.92
2022-08-22T15:21:24.151Z,2.00
2022-08-22T15:23:53.280Z,2.10
2022-08-22T15:26:32.097Z,2.30
2022-08-22T15:29:20.240Z,2.20
2022-08-22T15:31:50.538Z,2.13
2022-08-22T15:34:56.041Z,1.95
2022-08-22T15:37:24.584Z,2.25
2022-08-22T15:40:10.199Z,2.17
2022-08-22T15:47:41.640Z,2.20
2022-08-22T15:50:15.374Z,1.95
2022-08-22T15:53:05.080Z,1.80
2022-08-22T15:55:34.677Z,1.95
2022-08-22T15:58:02.580Z,2.40
2022-08-22T16:00:32.746Z,2.13
2022-08-22T16:03:06.078Z,2.30
2022-08-22T16:05:51.894Z,2.55
2022-08-22T16:08:24.418Z,2.28
2022-08-22T16:11:14.609Z,2.05
2022-08-22T16:13:43.018Z,2.47
2022-08-22T16:16:10.198Z,1.83
2022-08-22T16:18:40.344Z,2.25
2022-08-22T16:21:08.942Z,2.05
2022-08-22T16:23:54.173Z,2.10
2022-08-22T16:26:25.754Z,4.15
2022-08-22T16:29:00.248Z,3.88
2022-08-22T16:31:45.829Z,6.80
2022-08-22T16:34:18.820Z,7.80
2022-08-22T16:36:48.927Z,5.78
2022-08-22T16:41:49.337Z,3.95
2022-08-22T16:46:45.174Z,3.55
2022-08-22T16:49:24.078Z,2.78
2022-08-22T16:52:10.129Z,3.05
2022-08-22T16:54:45.146Z,3.13
2022-08-22T16:57:26.488Z,2.20
2022-08-22T17:00:09.070Z,2.90
2022-08-22T17:02:39.253Z,2.75
2022-08-22T17:05:18.890Z,2.63
2022-08-22T17:08:01.475Z,2.70
2022-08-22T17:10:36.123Z,2.33
2022-08-22T17:13:03.218Z,1.92
2022-08-22T17:15:48.764Z,2.35
2022-08-22T17:18:22.096Z,2.60
2022-08-22T17:20:54.305Z,2.00
2022-08-22T17:23:21.557Z,2.22
2022-08-22T17:25:54.573Z,2.00
2022-08-22T17:28:40.493Z,2.00
2022-08-22T17:31:07.611Z,1.95
2022-08-22T17:33:51.546Z,2.30
2022-08-22T17:36:30.595Z,2.60
2022-08-22T17:39:16.450Z,2.33
2022-08-22T17:41:52.054Z,2.60
2022-08-22T17:44:25.261Z,2.53
2022-08-22T17:47:24.241Z,2.30
2022-08-22T17:49:51.483Z,2.63
2022-08-22T17:52:44.814Z,2.33
2022-08-22T17:55:23.842Z,2.25
2022-08-22T17:58:11.378Z,2.80
2022-08-22T18:00:41.901Z,1.80
2022-08-22T18:03:09.192Z,2.13
2022-08-22T18:05:56.598Z,2.20
2022-08-22T18:11:24.101Z,2.08
2022-08-22T18:14:09.405Z,2.10
2022-08-22T18:16:42.205Z,1.80
2022-08-22T18:19:24.538Z,1.98
2022-08-22T18:22:04.462Z,2.13
2022-08-22T18:24:35.665Z,2.10
2022-08-22T18:27:08.303Z,2.30
2022-08-22T18:30:05.279Z,1.92
2022-08-22T18:32:39.519Z,1.80
2022-08-22T18:35:17.764Z,2.65
2022-08-22T18:37:57.118Z,2.10
2022-08-22T18:40:30.065Z,1.98
2022-08-22T18:43:04.161Z,2.00
2022-08-22T18:45:46.261Z,1.77
2022-08-22T18:48:27.009Z,2.08
2022-08-22T18:51:13.669Z,2.35
2022-08-22T18:53:59.479Z,1.90
2022-08-22T18:56:39.374Z,1.80
2022-08-22T18:59:09.462Z,2.85
2022-08-22T19:02:09.737Z,2.70
2022-08-22T19:04:40.561Z,2.30
2022-08-22T19:07:13.514Z,2.10
2022-08-22T19:09:45.661Z,1.85
2022-08-22T19:12:12.766Z,2.25
2022-08-22T19:15:00.678Z,3.00
2022-08-22T19:17:34.071Z,2.05
2022-08-22T19:20:23.759Z,2.65
2022-08-22T19:22:54.681Z,2.47
2022-08-22T19:25:26.364Z,2.72
2022-08-22T19:28:11.497Z,1.92
2022-08-22T19:30:49.556Z,2.20
2022-08-22T19:33:19.665Z,2.25
2022-08-22T19:35:56.430Z,1.88
2022-08-22T19:38:43.715Z,2.25
2022-08-22T19:41:34.935Z,1.73
2022-08-22T19:44:02.295Z,2.10
2022-08-22T19:46:37.040Z,1.92
2022-08-22T19:49:05.647Z,2.08
2022-08-22T19:51:32.878Z,1.90
2022-08-22T19:54:05.922Z,1.80
2022-08-22T19:56:33.137Z,1.85
2022-08-22T19:59:12.687Z,2.13
2022-08-22T20:01:58.266Z,2.20
2022-08-22T20:04:28.427Z,2.55
2022-08-22T20:07:14.742Z,2.80
2022-08-22T20:09:48.363Z,2.20
2022-08-22T20:12:16.019Z,1.83
2022-08-22T20:14:44.521Z,2.58
2022-08-22T20:17:26.836Z,2.10
2022-08-22T20:22:49.365Z,2.08
2022-08-22T20:25:42.527Z,1.67
2022-08-22T20:28:11.735Z,1.80
2022-08-22T20:30:47.644Z,1.60
2022-08-22T20:33:18.587Z,1.70
2022-08-22T20:35:52.483Z,1.70
2022-08-22T20:38:22.902Z,1.58
2022-08-22T20:40:56.513Z,1.50
2022-08-22T20:43:24.900Z,1.77
2022-08-22T20:46:15.126Z,1.50
2022-08-22T20:48:44.585Z,1.88
2022-08-22T20:51:13.870Z,2.15
2022-08-22T20:53:41.034Z,2.40
2022-08-22T20:56:09.579Z,1.70
2022-08-22T20:58:39.652Z,1.90
2022-08-22T21:01:07.573Z,2.00
2022-08-22T21:03:40.889Z,1.85
2022-08-22T21:06:15.321Z,1.70
2022-08-22T21:08:43.305Z,2.00
2022-08-22T21:11:29.652Z,1.83
2022-08-22T21:13:56.834Z,1.42
2022-08-22T21:16:33.160Z,1.80
2022-08-22T21:19:04.431Z,1.60
2022-08-22T21:21:32.823Z,1.98
2022-08-22T21:24:01.827Z,2.15
2022-08-22T21:26:31.820Z,1.60
2022-08-22T21:29:13.935Z,1.40
2022-08-22T21:31:49.974Z,1.45
2022-08-22T21:34:19.907Z,1.55
2022-08-22T21:36:48.367Z,1.80
2022-08-22T21:39:36.665Z,1.55
2022-08-22T21:42:03.780Z,1.50
2022-08-22T21:44:35.722Z,1.45
2022-08-22T21:47:15.003Z,1.52
2022-08-22T21:50:03.530Z,2.08
2022-08-22T21:52:32.798Z,1.50
2022-08-22T21:55:18.700Z,1.30
2022-08-22T21:57:45.825Z,1.70
2022-08-22T22:00:31.665Z,1.80
2022-08-22T22:03:02.940Z,1.83
2022-08-22T22:05:30.222Z,1.40
2022-08-22T22:07:57.366Z,1.58
2022-08-22T22:10:25.386Z,1.77
2022-08-22T22:12:54.643Z,1.58
2022-08-22T22:15:24.268Z,2.03
2022-08-22T22:17:51.377Z,1.73
2022-08-22T22:20:19.849Z,1.80
2022-08-22T22:22:47.302Z,1.70
2022-08-22T22:25:38.844Z,1.98
2022-08-22T22:28:08.227Z,1.50
2022-08-22T22:30:35.793Z,1.95
2022-08-22T22:33:02.928Z,1.58
2022-08-22T22:35:30.874Z,2.13
2022-08-22T22:37:58.074Z,1.85
2022-08-22T22:40:25.263Z,2.35
2022-08-22T22:42:52.424Z,2.30
2022-08-22T22:45:19.520Z,2.25
2022-08-22T22:47:46.639Z,2.72
2022-08-22T22:50:13.846Z,2.20
2022-08-22T22:52:41.141Z,2.08
2022-08-22T22:55:09.171Z,1.80
2022-08-22T22:57:42.694Z,2.20
2022-08-22T23:00:11.371Z,2.08
2022-08-22T23:02:38.608Z,1.67
2022-08-22T23:05:06.444Z,1.95
2022-08-22T23:07:33.816Z,2.10
2022-08-22T23:10:02.235Z,2.10
2022-08-22T23:12:29.524Z,2.40
2022-08-22T23:14:56.818Z,1.95
2022-08-22T23:17:23.947Z,2.35
2022-08-22T23:19:51.788Z,2.22
2022-08-22T23:22:19.246Z,2.13
2022-08-22T23:24:46.349Z,1.75
2022-08-22T23:27:13.434Z,2.30
2022-08-22T23:29:41.514Z,2.05
2022-08-22T23:32:09.276Z,2.25
2022-08-22T23:34:38.274Z,2.38
2022-08-22T23:37:07.052Z,1.95
2022-08-22T23:42:02.282Z,1.70
2022-08-22T23:44:31.798Z,2.00
2022-08-22T23:46:59.607Z,1.95
2022-08-22T23:49:27.349Z,2.20
2022-08-22T23:51:54.881Z,2.03
2022-08-22T23:54:22.537Z,2.00
2022-08-22T23:56:54.556Z,2.22
2022-08-22T23:59:23.384Z,2.10
